Archiv-/Tagesdaten

--Timestamp---	Temp	Chill	HIndex	Humid	Dewpt	 Wind 	HiWind	WindDir	Rain 	Barom	Solar	 ET  	 UV 
--------------	----	-----	------	-----	-----	------	------	-------	-----	-----	-----	-----	----
20100106 00:00	-6.6	-6.6	-6.6	86	-8.5	3	6	112	0.0	1002.5	0	0.000	0.0
20100106 00:05	-6.6	-6.6	-6.6	86	-8.5	2	6	112	0.0	1002.5	0	0.000	0.0
20100106 00:10	-6.6	-6.6	-6.6	86	-8.5	2	6	112	0.0	1002.3	0	0.000	0.0
20100106 00:15	-6.6	-6.6	-6.6	86	-8.6	0	3	112	0.0	1002.3	0	0.000	0.0
20100106 00:20	-6.6	-6.6	-6.6	87	-8.4	0	5	112	0.0	1002.3	0	0.000	0.0
20100106 00:25	-6.5	-6.5	-6.5	87	-8.3	3	5	112	0.0	1002.3	0	0.000	0.0
20100106 00:30	-6.5	-6.5	-6.5	87	-8.3	0	3	112	0.0	1002.3	0	0.000	0.0
20100106 00:35	-6.5	-6.5	-6.5	87	-8.3	0	2	112	0.0	1002.3	0	0.000	0.0
20100106 00:40	-6.5	-6.5	-6.5	87	-8.3	2	5	112	0.0	1002.2	0	0.000	0.0
20100106 00:45	-6.4	-6.4	-6.4	87	-8.2	3	6	158	0.0	1002.2	0	0.000	0.0
20100106 00:50	-6.4	-6.4	-6.4	87	-8.2	0	3	158	0.0	1002.2	0	0.000	0.0
20100106 00:55	-6.4	-6.4	-6.4	87	-8.2	2	5	158	0.0	1002.1	0	0.000	0.0
20100106 01:00	-6.3	-6.3	-6.3	87	-8.1	2	6	158	0.0	1002.1	0	0.000	0.0
20100106 01:05	-6.3	-6.3	-6.3	86	-8.3	2	5	158	0.0	1002.0	0	0.000	0.0
20100106 01:10	-6.3	-6.3	-6.3	86	-8.3	2	3	158	0.0	1002.0	0	0.000	0.0
20100106 01:15	-6.3	-6.3	-6.3	86	-8.3	2	5	158	0.0	1002.0	0	0.000	0.0
20100106 01:20	-6.4	-6.4	-6.4	86	-8.3	0	2	158	0.0	1002.0	0	0.000	0.0
20100106 01:25	-6.4	-6.4	-6.4	86	-8.3	2	6	158	0.0	1001.8	0	0.000	0.0
20100106 01:30	-6.4	-6.4	-6.4	86	-8.4	3	6	158	0.0	1001.8	0	0.000	0.0
20100106 01:35	-6.4	-6.4	-6.4	86	-8.4	2	6	158	0.0	1002.0	0	0.000	0.0
20100106 01:40	-6.4	-6.4	-6.4	86	-8.4	2	6	158	0.0	1001.9	0	0.000	0.0
20100106 01:45	-6.5	-6.5	-6.5	86	-8.4	2	5	158	0.0	1001.8	0	0.000	0.0
20100106 01:50	-6.5	-6.5	-6.5	86	-8.4	2	5	158	0.0	1001.8	0	0.000	0.0
20100106 01:55	-6.6	-6.6	-6.6	86	-8.5	2	6	158	0.0	1001.9	0	0.000	0.0
20100106 02:00	-6.6	-6.6	-6.6	86	-8.5	2	5	158	0.0	1001.8	0	0.000	0.0
20100106 02:05	-6.6	-6.6	-6.6	86	-8.5	2	3	158	0.0	1001.8	0	0.000	0.0
20100106 02:10	-6.6	-6.6	-6.6	86	-8.5	0	3	158	0.0	1001.9	0	0.000	0.0
20100106 02:15	-6.6	-6.6	-6.6	86	-8.6	2	5	158	0.0	1001.9	0	0.000	0.0
20100106 02:20	-6.6	-6.6	-6.6	86	-8.6	0	0	-100000	0.0	1002.0	0	0.000	0.0
20100106 02:25	-6.6	-6.6	-6.6	86	-8.6	0	3	158	0.0	1002.0	0	0.000	0.0
20100106 02:30	-6.6	-6.6	-6.6	86	-8.5	0	5	158	0.0	1002.1	0	0.000	0.0
20100106 02:35	-6.6	-6.6	-6.6	86	-8.5	0	3	158	0.0	1002.1	0	0.000	0.0
20100106 02:40	-6.6	-6.6	-6.6	86	-8.5	0	2	158	0.0	1002.1	0	0.000	0.0
20100106 02:45	-6.6	-6.6	-6.6	86	-8.6	2	3	158	0.0	1002.2	0	0.000	0.0
20100106 02:50	-6.7	-6.7	-6.7	87	-8.5	2	3	158	0.0	1002.2	0	0.000	0.0
20100106 02:55	-6.7	-6.7	-6.7	87	-8.5	2	5	158	0.0	1002.2	0	0.000	0.0
20100106 03:00	-6.7	-6.7	-6.7	87	-8.5	3	5	158	0.0	1002.1	0	0.000	0.0
20100106 03:05	-6.7	-6.7	-6.7	87	-8.5	3	5	158	0.0	1002.0	0	0.000	0.0
20100106 03:10	-6.7	-6.7	-6.7	87	-8.5	2	5	158	0.0	1002.0	0	0.000	0.0
20100106 03:15	-6.7	-6.7	-6.7	87	-8.5	5	8	112	0.0	1002.0	0	0.000	0.0
20100106 03:20	-6.8	-6.8	-6.8	87	-8.6	2	5	112	0.0	1001.9	0	0.000	0.0
20100106 03:25	-6.8	-6.8	-6.8	87	-8.6	2	5	112	0.0	1001.9	0	0.000	0.0
20100106 03:30	-6.8	-6.8	-6.8	87	-8.6	2	5	112	0.0	1001.8	0	0.000	0.0
20100106 03:35	-6.8	-6.8	-6.8	87	-8.6	3	6	112	0.0	1001.7	0	0.000	0.0
20100106 03:40	-6.8	-6.8	-6.8	87	-8.6	3	6	135	0.0	1001.7	0	0.000	0.0
20100106 03:45	-6.8	-6.8	-6.8	87	-8.6	3	8	158	0.0	1001.7	0	0.000	0.0
20100106 03:50	-6.7	-6.7	-6.7	87	-8.5	3	6	158	0.0	1001.7	0	0.000	0.0
20100106 03:55	-6.7	-6.7	-6.7	87	-8.5	2	3	158	0.0	1001.7	0	0.000	0.0
20100106 04:00	-6.8	-6.8	-6.8	87	-8.6	0	5	158	0.0	1001.7	0	0.000	0.0
20100106 04:05	-6.8	-6.8	-6.8	87	-8.6	2	5	158	0.0	1001.6	0	0.000	0.0
20100106 04:10	-6.7	-6.7	-6.7	87	-8.5	0	0	-100000	0.0	1001.6	0	0.000	0.0
20100106 04:15	-6.7	-6.7	-6.7	87	-8.5	0	3	158	0.0	1001.6	0	0.000	0.0
20100106 04:20	-6.6	-6.6	-6.6	87	-8.4	2	5	158	0.0	1001.5	0	0.000	0.0
20100106 04:25	-6.7	-6.7	-6.7	87	-8.5	2	5	158	0.0	1001.6	0	0.000	0.0
20100106 04:30	-6.7	-6.7	-6.7	87	-8.5	2	6	158	0.0	1001.6	0	0.000	0.0
20100106 04:35	-6.7	-6.7	-6.7	87	-8.5	3	6	180	0.0	1001.7	0	0.000	0.0
20100106 04:40	-6.7	-6.7	-6.7	87	-8.5	2	6	202	0.0	1001.7	0	0.000	0.0
20100106 04:45	-6.8	-6.8	-6.8	87	-8.6	2	5	202	0.0	1001.7	0	0.000	0.0
20100106 04:50	-6.8	-6.8	-6.8	87	-8.6	0	3	202	0.0	1001.7	0	0.000	0.0
20100106 04:55	-6.8	-6.8	-6.8	87	-8.6	0	0	-100000	0.0	1001.7	0	0.000	0.0
20100106 05:00	-6.7	-6.7	-6.7	87	-8.5	2	6	202	0.0	1001.7	0	0.000	0.0
20100106 05:05	-6.7	-6.7	-6.7	87	-8.5	3	6	202	0.0	1001.7	0	0.000	0.0
20100106 05:10	-6.7	-6.7	-6.7	87	-8.5	3	6	202	0.0	1001.6	0	0.000	0.0
20100106 05:15	-6.7	-6.7	-6.7	87	-8.5	3	6	202	0.0	1001.7	0	0.000	0.0
20100106 05:20	-6.7	-6.7	-6.7	87	-8.5	3	5	202	0.0	1001.7	0	0.000	0.0
20100106 05:25	-6.8	-6.8	-6.8	87	-8.6	3	5	202	0.0	1001.7	0	0.000	0.0
20100106 05:30	-6.7	-6.7	-6.7	87	-8.5	3	6	202	0.0	1001.7	0	0.000	0.0
20100106 05:35	-6.7	-6.7	-6.7	87	-8.5	2	5	202	0.0	1001.8	0	0.000	0.0
20100106 05:40	-6.7	-6.7	-6.7	87	-8.5	3	6	202	0.0	1001.7	0	0.000	0.0
20100106 05:45	-6.7	-6.7	-6.7	87	-8.5	3	6	202	0.0	1001.7	0	0.000	0.0
20100106 05:50	-6.7	-6.7	-6.7	87	-8.5	2	5	202	0.0	1001.6	0	0.000	0.0
20100106 05:55	-6.8	-6.8	-6.8	87	-8.6	3	6	202	0.0	1001.7	0	0.000	0.0
20100106 06:00	-6.8	-6.8	-6.8	87	-8.6	2	5	202	0.0	1001.7	0	0.000	0.0
20100106 06:05	-6.8	-6.8	-6.8	87	-8.6	3	5	202	0.0	1001.5	0	0.000	0.0
20100106 06:10	-6.8	-6.8	-6.8	87	-8.6	0	5	202	0.0	1001.6	0	0.000	0.0
20100106 06:15	-6.7	-6.7	-6.7	87	-8.5	3	6	202	0.0	1001.6	0	0.000	0.0
20100106 06:20	-6.7	-6.7	-6.7	87	-8.5	0	3	202	0.0	1001.5	0	0.000	0.0
20100106 06:25	-6.7	-6.7	-6.7	87	-8.5	2	5	202	0.0	1001.6	0	0.000	0.0
20100106 06:30	-6.7	-6.7	-6.7	87	-8.5	2	5	202	0.0	1001.7	0	0.000	0.0
20100106 06:35	-6.7	-6.7	-6.7	87	-8.5	2	5	202	0.0	1001.7	0	0.000	0.0
20100106 06:40	-6.7	-6.7	-6.7	87	-8.5	2	5	202	0.0	1001.8	0	0.000	0.0
20100106 06:45	-6.7	-6.7	-6.7	87	-8.5	3	5	202	0.0	1001.7	0	0.000	0.0
20100106 06:50	-6.7	-6.7	-6.7	87	-8.5	3	5	202	0.0	1001.8	0	0.000	0.0
20100106 06:55	-6.7	-6.7	-6.7	87	-8.5	3	6	202	0.0	1001.9	0	0.000	0.0
20100106 07:00	-6.7	-6.7	-6.7	87	-8.5	3	8	202	0.0	1001.9	0	0.000	0.0
20100106 07:05	-6.7	-6.7	-6.7	87	-8.5	5	10	202	0.0	1001.9	0	0.000	0.0
20100106 07:10	-6.7	-6.7	-6.7	87	-8.5	2	5	202	0.0	1001.9	0	0.000	0.0
20100106 07:15	-6.7	-6.7	-6.7	87	-8.5	3	11	202	0.0	1002.0	0	0.000	0.0
20100106 07:20	-6.7	-6.7	-6.7	87	-8.5	3	8	202	0.0	1001.9	0	0.000	0.0
20100106 07:25	-6.6	-6.6	-6.6	87	-8.4	0	3	202	0.0	1001.9	0	0.000	0.0
20100106 07:30	-6.6	-6.6	-6.6	87	-8.4	0	3	202	0.0	1002.0	0	0.000	0.0
20100106 07:35	-6.6	-6.6	-6.6	87	-8.4	0	2	202	0.0	1002.0	0	0.000	0.0
20100106 07:40	-6.6	-6.6	-6.6	87	-8.4	2	6	202	0.0	1001.9	0	0.000	0.0
20100106 07:45	-6.6	-6.6	-6.6	87	-8.4	5	6	202	0.0	1001.8	0	0.000	0.0
20100106 07:50	-6.6	-6.6	-6.6	87	-8.4	3	6	202	0.0	1001.9	0	0.000	0.0
20100106 07:55	-6.6	-6.6	-6.6	87	-8.4	2	6	202	0.0	1002.0	0	0.000	0.0
20100106 08:00	-6.6	-6.6	-6.6	87	-8.4	2	6	202	0.0	1002.0	0	0.000	0.0
20100106 08:05	-6.6	-6.6	-6.6	87	-8.4	2	5	202	0.0	1002.2	0	0.000	0.0
20100106 08:10	-6.6	-6.6	-6.6	87	-8.4	0	3	202	0.0	1002.3	0	0.000	0.0
20100106 08:15	-6.5	-6.5	-6.5	87	-8.3	0	0	-100000	0.0	1002.2	0	0.000	0.0
20100106 08:20	-6.5	-6.5	-6.5	87	-8.3	2	6	202	0.0	1002.2	0	0.000	0.0
20100106 08:25	-6.5	-6.5	-6.5	87	-8.3	0	3	202	0.0	1002.2	0	0.000	0.0
20100106 08:30	-6.5	-6.5	-6.5	87	-8.3	2	5	202	0.0	1002.2	2	0.000	0.0
20100106 08:35	-6.5	-6.5	-6.5	87	-8.3	2	3	202	0.0	1002.2	5	0.000	0.0
20100106 08:40	-6.5	-6.5	-6.5	87	-8.3	2	5	202	0.0	1002.3	6	0.000	0.0
20100106 08:45	-6.5	-6.5	-6.5	87	-8.3	2	5	202	0.0	1002.3	8	0.000	0.0
20100106 08:50	-6.5	-6.5	-6.5	87	-8.3	3	6	202	0.0	1002.3	10	0.000	0.0
20100106 08:55	-6.5	-6.5	-6.5	87	-8.3	3	6	202	0.0	1002.3	14	0.000	0.0
20100106 09:00	-6.5	-6.5	-6.5	87	-8.3	2	5	202	0.0	1002.4	16	0.000	0.0
20100106 09:05	-6.4	-6.4	-6.4	87	-8.2	2	5	202	0.0	1002.4	19	0.000	0.0
20100106 09:10	-6.4	-6.4	-6.4	87	-8.2	2	5	202	0.0	1002.5	22	0.000	0.0
20100106 09:15	-6.3	-6.3	-6.3	87	-8.1	2	5	202	0.0	1002.4	22	0.000	0.0
20100106 09:20	-6.3	-6.3	-6.3	87	-8.1	2	5	202	0.0	1002.5	19	0.000	0.0
20100106 09:25	-6.4	-6.4	-6.4	87	-8.2	2	3	202	0.0	1002.6	22	0.000	0.0
20100106 09:30	-6.3	-6.3	-6.3	87	-8.1	2	5	202	0.0	1002.6	30	0.000	0.0
20100106 09:35	-6.3	-6.3	-6.3	87	-8.1	2	3	202	0.0	1002.5	43	0.000	0.0
20100106 09:40	-6.3	-6.3	-6.3	87	-8.1	0	3	202	0.0	1002.6	51	0.000	0.0
20100106 09:45	-6.2	-6.2	-6.2	86	-8.2	2	5	202	0.0	1002.6	57	0.000	0.0
20100106 09:50	-6.1	-6.1	-6.1	86	-8.1	2	5	202	0.0	1002.6	63	0.000	0.0
20100106 09:55	-6.1	-6.1	-6.1	86	-8.0	3	5	202	0.0	1002.6	73	0.000	0.0
20100106 10:00	-5.9	-5.9	-5.9	86	-7.9	3	5	202	0.0	1002.8	81	0.000	0.0
20100106 10:05	-5.8	-5.8	-5.8	86	-7.8	3	6	202	0.0	1002.8	83	0.000	0.0
20100106 10:10	-5.7	-5.7	-5.7	86	-7.6	2	5	202	0.0	1002.8	95	0.000	0.0
20100106 10:15	-5.6	-5.6	-5.6	85	-7.7	2	6	202	0.0	1002.8	102	0.000	0.0
20100106 10:20	-5.5	-5.5	-5.5	85	-7.6	2	3	202	0.0	1002.9	106	0.000	0.0
20100106 10:25	-5.4	-5.4	-5.4	85	-7.6	2	5	202	0.0	1002.9	102	0.000	0.0
20100106 10:30	-5.4	-5.4	-5.4	84	-7.7	0	0	-100000	0.0	1002.9	107	0.000	0.0
20100106 10:35	-5.3	-5.3	-5.3	85	-7.5	0	0	-100000	0.0	1002.9	104	0.000	0.0
20100106 10:40	-5.2	-5.2	-5.2	84	-7.5	0	0	-100000	0.0	1002.9	103	0.000	0.0
20100106 10:45	-5.2	-5.2	-5.2	83	-7.6	0	2	202	0.0	1002.9	111	0.000	0.0
20100106 10:50	-5.1	-5.1	-5.1	83	-7.5	0	3	202	0.0	1002.9	112	0.000	0.0
20100106 10:55	-5.0	-5.0	-5.0	83	-7.4	2	3	202	0.0	1002.7	109	0.000	0.0
20100106 11:00	-4.9	-4.9	-4.9	82	-7.5	2	5	202	0.0	1002.7	100	0.025	0.0
20100106 11:05	-4.9	-4.9	-4.9	82	-7.5	0	3	202	0.0	1002.9	103	0.000	0.0
20100106 11:10	-4.8	-4.8	-4.8	82	-7.4	0	2	202	0.0	1003.0	103	0.000	0.0
20100106 11:15	-4.8	-4.8	-4.8	82	-7.4	0	3	202	0.0	1003.0	98	0.000	0.0
20100106 11:20	-4.8	-4.8	-4.8	82	-7.4	2	5	202	0.0	1003.0	91	0.000	0.0
20100106 11:25	-4.8	-4.8	-4.8	82	-7.4	2	5	202	0.0	1003.0	93	0.000	0.0
20100106 11:30	-4.9	-4.9	-4.9	82	-7.5	2	5	202	0.0	1003.0	99	0.000	0.0
20100106 11:35	-4.9	-4.9	-4.9	82	-7.5	2	6	225	0.0	1003.0	101	0.000	0.0
20100106 11:40	-4.8	-4.8	-4.8	83	-7.3	2	3	225	0.0	1003.0	96	0.000	0.0
20100106 11:45	-4.8	-4.8	-4.8	83	-7.2	2	5	225	0.0	1003.0	102	0.000	0.0
20100106 11:50	-4.7	-4.7	-4.7	82	-7.3	0	5	225	0.0	1003.0	103	0.000	0.0
20100106 11:55	-4.7	-4.7	-4.7	82	-7.3	2	6	225	0.0	1002.8	109	0.000	0.0
20100106 12:00	-4.7	-4.7	-4.7	81	-7.5	3	8	225	0.0	1002.8	117	0.025	0.2
20100106 12:05	-4.7	-4.7	-4.7	82	-7.3	3	10	225	0.0	1002.8	128	0.000	0.5
20100106 12:10	-4.7	-4.7	-4.7	82	-7.3	3	6	225	0.0	1002.8	111	0.000	0.0
20100106 12:15	-4.7	-4.7	-4.7	82	-7.3	5	10	248	0.0	1002.6	108	0.000	0.0
20100106 12:20	-4.7	-4.7	-4.7	82	-7.3	5	8	248	0.0	1002.6	104	0.000	0.0
20100106 12:25	-4.7	-4.7	-4.7	82	-7.3	3	6	248	0.0	1002.5	99	0.000	0.0
20100106 12:30	-4.7	-4.7	-4.7	82	-7.3	3	6	248	0.0	1002.5	100	0.000	0.0
20100106 12:35	-4.7	-4.7	-4.7	82	-7.3	2	6	248	0.0	1002.4	113	0.000	0.0
20100106 12:40	-4.6	-4.6	-4.6	82	-7.2	3	6	248	0.0	1002.4	117	0.000	0.3
20100106 12:45	-4.6	-4.6	-4.6	82	-7.2	5	6	248	0.0	1002.4	110	0.000	0.1
20100106 12:50	-4.5	-4.5	-4.5	81	-7.3	3	6	248	0.0	1002.4	118	0.000	0.5
20100106 12:55	-4.5	-4.5	-4.5	81	-7.3	2	5	248	0.0	1002.4	126	0.000	0.5
20100106 13:00	-4.4	-4.4	-4.4	82	-7.0	0	0	-100000	0.0	1002.4	137	0.025	0.5
20100106 13:05	-4.2	-4.2	-4.2	82	-6.8	2	5	248	0.0	1002.3	158	0.000	0.5
20100106 13:10	-4.1	-4.1	-4.1	81	-6.9	2	8	248	0.0	1002.3	155	0.000	0.5
20100106 13:15	-4.0	-4.0	-4.0	81	-6.8	3	8	248	0.0	1002.3	135	0.000	0.5
20100106 13:20	-4.0	-4.0	-4.0	80	-6.9	3	6	248	0.0	1002.3	138	0.000	0.5
20100106 13:25	-3.9	-3.9	-3.9	81	-6.7	3	6	248	0.0	1002.4	137	0.000	0.0
20100106 13:30	-4.0	-4.0	-4.0	80	-6.9	3	6	248	0.0	1002.5	138	0.000	0.0
20100106 13:35	-3.9	-3.9	-3.9	81	-6.7	5	8	270	0.0	1002.5	121	0.000	0.0
20100106 13:40	-3.9	-3.9	-3.9	80	-6.9	5	6	315	0.0	1002.6	113	0.000	0.0
20100106 13:45	-3.9	-3.9	-3.9	81	-6.7	3	6	315	0.0	1002.6	119	0.000	0.0
20100106 13:50	-3.8	-3.8	-3.8	81	-6.6	3	6	315	0.0	1002.5	131	0.000	0.0
20100106 13:55	-3.8	-3.8	-3.8	80	-6.7	5	10	315	0.0	1002.5	132	0.000	0.0
20100106 14:00	-3.7	-3.7	-3.7	81	-6.4	3	6	292	0.0	1002.5	125	0.051	0.0
20100106 14:05	-3.7	-3.7	-3.7	80	-6.6	3	6	292	0.0	1002.5	111	0.000	0.0
20100106 14:10	-3.7	-3.7	-3.7	79	-6.8	3	5	292	0.0	1002.5	110	0.000	0.0
20100106 14:15	-3.8	-3.8	-3.8	80	-6.7	2	5	292	0.0	1002.5	111	0.000	0.0
20100106 14:20	-3.7	-3.7	-3.7	80	-6.6	2	5	292	0.0	1002.4	107	0.000	0.0
20100106 14:25	-3.6	-3.6	-3.6	80	-6.5	0	3	292	0.0	1002.3	105	0.000	0.0
20100106 14:30	-3.6	-3.6	-3.6	80	-6.5	2	5	292	0.0	1002.3	100	0.000	0.0
20100106 14:35	-3.4	-3.4	-3.4	80	-6.4	2	5	292	0.0	893.6	101	0.000	0.0
20100106 14:40	-3.4	-3.4	-3.4	79	-6.5	2	5	292	0.0	1002.4	89	0.000	0.0
20100106 14:45	-3.4	-3.4	-3.4	80	-6.3	0	2	292	0.0	1002.4	89	0.000	0.0
20100106 14:50	-3.3	-3.3	-3.3	80	-6.3	0	2	292	0.0	1002.4	83	0.000	0.0
20100106 14:55	-3.3	-3.3	-3.3	79	-6.4	0	3	292	0.0	1002.4	81	0.000	0.0
20100106 15:00	-3.4	-3.4	-3.4	79	-6.5	0	0	-100000	0.0	1002.4	74	0.025	0.0
20100106 15:05	-3.5	-3.5	-3.5	80	-6.4	2	3	292	0.0	1002.4	64	0.000	0.0
20100106 15:10	-3.5	-3.5	-3.5	80	-6.4	0	2	292	0.0	1002.4	62	0.000	0.0
20100106 15:15	-3.5	-3.5	-3.5	80	-6.4	0	3	292	0.0	576.2	57	0.000	0.0
20100106 15:20	-3.4	-3.4	-3.4	80	-6.4	3	6	292	0.0	576.2	67	0.000	0.0
20100106 15:25	-3.4	-3.4	-3.4	80	-6.4	5	8	292	0.0	576.2	61	0.000	0.0
20100106 15:30	-3.4	-3.4	-3.4	80	-6.3	5	8	292	0.0	576.2	49	0.000	0.0
20100106 15:35	-3.3	-3.3	-3.3	80	-6.3	5	8	292	0.0	576.2	47	0.000	0.0
20100106 15:40	-3.3	-3.3	-3.3	80	-6.3	5	6	292	0.0	576.2	48	0.000	0.0
20100106 15:45	-3.3	-3.3	-3.3	80	-6.3	5	6	292	0.0	576.2	42	0.000	0.0
20100106 15:50	-3.4	-3.4	-3.4	80	-6.3	3	6	292	0.0	576.2	40	0.000	0.0
20100106 15:55	-3.4	-3.4	-3.4	80	-6.4	3	6	292	0.0	576.2	34	0.000	0.0
20100106 16:00	-3.4	-3.4	-3.4	81	-6.2	3	6	292	0.0	576.2	27	0.025	0.0
20100106 16:05	-3.4	-3.4	-3.4	80	-6.3	2	5	292	0.0	576.2	21	0.000	0.0
20100106 16:10	-3.4	-3.4	-3.4	81	-6.2	2	5	292	0.0	576.2	18	0.000	0.0
20100106 16:15	-3.4	-3.4	-3.4	81	-6.2	0	0	-100000	0.0	576.2	15	0.000	0.0
20100106 16:20	-3.3	-3.3	-3.3	82	-6.0	2	6	292	0.0	576.2	9	0.000	0.0
20100106 16:25	-3.3	-3.3	-3.3	81	-6.1	5	8	292	0.0	622.6	5	0.000	0.0
20100106 16:30	-3.4	-3.4	-3.4	81	-6.2	3	6	292	0.0	622.6	3	0.000	0.0
20100106 16:35	-3.4	-3.4	-3.4	81	-6.2	3	6	292	0.0	622.6	0	0.000	0.0
20100106 16:40	-3.5	-3.5	-3.5	81	-6.3	5	8	292	0.0	622.6	0	0.000	0.0
20100106 16:45	-3.5	-3.5	-3.5	81	-6.3	5	6	292	0.0	622.6	0	0.000	0.0
20100106 16:50	-3.5	-3.5	-3.5	81	-6.3	2	5	292	0.0	622.6	0	0.000	0.0
20100106 16:55	-3.5	-3.5	-3.5	82	-6.1	0	6	292	0.0	622.6	0	0.000	0.0
20100106 17:00	-3.5	-3.5	-3.5	81	-6.3	3	5	292	0.0	622.6	0	0.000	0.0
20100106 17:05	-3.5	-3.5	-3.5	82	-6.1	2	3	292	0.0	622.6	0	0.000	0.0
20100106 17:10	-3.5	-3.5	-3.5	82	-6.1	2	3	292	0.0	622.6	0	0.000	0.0
20100106 17:15	-3.5	-3.5	-3.5	82	-6.1	2	3	292	0.0	566.7	0	0.000	0.0
20100106 17:20	-3.4	-3.4	-3.4	82	-6.1	0	3	292	0.0	566.7	0	0.000	0.0
20100106 17:25	-3.4	-3.4	-3.4	82	-6.1	0	0	-100000	0.0	566.7	0	0.000	0.0
20100106 17:30	-3.4	-3.4	-3.4	81	-6.2	0	0	-100000	0.0	566.7	0	0.000	0.0
20100106 17:35	-3.4	-3.4	-3.4	82	-6.1	0	0	-100000	0.0	566.7	0	0.000	0.0
20100106 17:40	-3.4	-3.4	-3.4	81	-6.2	0	0	-100000	0.0	566.7	0	0.000	0.0
20100106 17:45	-3.4	-3.4	-3.4	81	-6.2	0	0	-100000	0.0	566.7	0	0.000	0.0
20100106 17:50	-3.4	-3.4	-3.4	81	-6.2	0	0	-100000	0.0	566.0	0	0.000	0.0
20100106 17:55	-3.4	-3.4	-3.4	81	-6.2	0	2	292	0.0	566.0	0	0.000	0.0
20100106 18:00	-3.3	-3.3	-3.3	81	-6.1	0	3	292	0.0	566.0	0	0.000	0.0
20100106 18:05	-3.4	-3.4	-3.4	81	-6.2	2	3	292	0.0	566.0	0	0.000	0.0
20100106 18:10	-3.4	-3.4	-3.4	81	-6.2	2	3	292	0.0	566.0	0	0.000	0.0
20100106 18:15	-3.4	-3.4	-3.4	82	-6.0	0	3	292	0.0	566.0	0	0.000	0.0
20100106 18:20	-3.4	-3.4	-3.4	82	-6.0	2	5	292	0.0	566.0	0	0.000	0.0
20100106 18:25	-3.4	-3.4	-3.4	81	-6.2	3	5	292	0.0	566.0	0	0.000	0.0
20100106 18:30	-3.4	-3.4	-3.4	82	-6.1	2	5	292	0.0	566.0	0	0.000	0.0
20100106 18:35	-3.3	-3.3	-3.3	82	-6.0	0	3	292	0.0	566.0	0	0.000	0.0
20100106 18:40	-3.3	-3.3	-3.3	82	-6.0	0	3	292	0.0	566.0	0	0.000	0.0
20100106 18:45	-3.3	-3.3	-3.3	81	-6.1	2	5	292	0.0	566.0	0	0.000	0.0
20100106 18:50	-3.3	-3.3	-3.3	82	-6.0	2	5	292	0.0	566.0	0	0.000	0.0
20100106 18:55	-3.3	-3.3	-3.3	82	-6.0	2	5	292	0.0	566.0	0	0.000	0.0
20100106 19:00	-3.4	-3.4	-3.4	82	-6.0	3	5	292	0.0	566.0	0	0.000	0.0
20100106 19:05	-3.4	-3.4	-3.4	82	-6.1	2	5	292	0.0	566.0	0	0.000	0.0
20100106 19:10	-3.4	-3.4	-3.4	82	-6.1	2	3	292	0.0	566.0	0	0.000	0.0
20100106 19:15	-3.4	-3.4	-3.4	82	-6.1	2	5	292	0.0	566.0	0	0.000	0.0
20100106 19:20	-3.5	-3.5	-3.5	82	-6.1	0	5	292	0.0	566.0	0	0.000	0.0
20100106 19:25	-3.4	-3.4	-3.4	82	-6.1	2	5	292	0.0	566.0	0	0.000	0.0
20100106 19:30	-3.4	-3.4	-3.4	82	-6.1	3	5	292	0.0	566.0	0	0.000	0.0
20100106 19:35	-3.4	-3.4	-3.4	82	-6.1	2	3	292	0.0	566.0	0	0.000	0.0
20100106 19:40	-3.4	-3.4	-3.4	82	-6.1	0	5	292	0.0	578.2	0	0.000	0.0
20100106 19:45	-3.4	-3.4	-3.4	82	-6.0	2	3	292	0.0	578.2	0	0.000	0.0
20100106 19:50	-3.4	-3.4	-3.4	82	-6.1	2	5	292	0.0	578.2	0	0.000	0.0
20100106 19:55	-3.4	-3.4	-3.4	82	-6.1	2	5	292	0.0	578.2	0	0.000	0.0
20100106 20:00	-3.4	-3.4	-3.4	82	-6.1	0	2	292	0.0	578.2	0	0.000	0.0
20100106 20:05	-3.4	-3.4	-3.4	82	-6.0	0	3	292	0.0	578.2	0	0.000	0.0
20100106 20:10	-3.3	-3.3	-3.3	82	-6.0	0	3	292	0.0	578.2	0	0.000	0.0
20100106 20:15	-3.4	-3.4	-3.4	82	-6.0	2	5	292	0.0	566.6	0	0.000	0.0
20100106 20:20	-3.4	-3.4	-3.4	82	-6.0	2	5	292	0.0	566.6	0	0.000	0.0
20100106 20:25	-3.3	-3.3	-3.3	83	-5.8	0	0	-100000	0.0	795.1	0	0.000	0.0
20100106 20:30	-3.3	-3.3	-3.3	83	-5.8	2	3	292	0.0	795.1	0	0.000	0.0
20100106 20:35	-3.3	-3.3	-3.3	82	-6.0	0	0	-100000	0.0	566.7	0	0.000	0.0
20100106 20:40	-3.3	-3.3	-3.3	83	-5.7	0	0	-100000	0.0	566.7	0	0.000	0.0
20100106 20:45	-3.3	-3.3	-3.3	83	-5.7	2	3	292	0.0	566.7	0	0.000	0.0
20100106 20:50	-3.3	-3.3	-3.3	83	-5.7	2	3	292	0.0	566.7	0	0.000	0.0
20100106 20:55	-3.2	-3.2	-3.2	83	-5.7	0	2	292	0.0	566.7	0	0.000	0.0
20100106 21:00	-3.2	-3.2	-3.2	83	-5.7	0	0	-100000	0.0	566.7	0	0.000	0.0
20100106 21:05	-3.2	-3.2	-3.2	83	-5.7	0	0	-100000	0.0	684.4	0	0.000	0.0
20100106 21:10	-3.2	-3.2	-3.2	83	-5.6	0	2	292	0.0	684.4	0	0.000	0.0
20100106 21:15	-3.2	-3.2	-3.2	82	-5.8	0	0	-100000	0.0	684.4	0	0.000	0.0
20100106 21:20	-3.2	-3.2	-3.2	82	-5.8	0	0	-100000	0.0	684.4	0	0.000	0.0
20100106 21:25	-3.2	-3.2	-3.2	82	-5.8	0	0	-100000	0.0	684.4	0	0.000	0.0
20100106 21:30	-3.2	-3.2	-3.2	82	-5.8	0	0	-100000	0.0	1087.5	0	0.000	0.0
20100106 21:35	-3.3	-3.3	-3.3	82	-5.9	0	0	-100000	0.0	1087.5	0	0.000	0.0
20100106 21:40	-3.4	-3.4	-3.4	82	-6.1	0	0	-100000	0.0	1087.5	0	0.000	0.0
20100106 21:45	-3.6	-3.6	-3.6	82	-6.2	0	0	-100000	0.0	1087.5	0	0.000	0.0
20100106 21:50	-3.7	-3.7	-3.7	83	-6.1	0	0	-100000	0.0	1087.5	0	0.000	0.0
20100106 21:55	-3.7	-3.7	-3.7	83	-6.2	0	0	-100000	0.0	1087.5	0	0.000	0.0
20100106 22:00	-3.7	-3.7	-3.7	83	-6.2	0	0	-100000	0.0	1087.5	0	0.000	0.0
20100106 22:05	-3.8	-3.8	-3.8	84	-6.1	0	0	-100000	0.0	1005.4	0	0.000	0.0
20100106 22:10	-3.8	-3.8	-3.8	84	-6.1	0	0	-100000	0.0	1005.4	0	0.000	0.0
20100106 22:15	-3.8	-3.8	-3.8	84	-6.1	0	0	-100000	0.0	1005.4	0	0.000	0.0
20100106 22:20	-3.8	-3.8	-3.8	84	-6.1	0	0	-100000	0.0	1005.5	0	0.000	0.0
20100106 22:25	-3.8	-3.8	-3.8	84	-6.1	0	0	-100000	0.0	1005.5	0	0.000	0.0
20100106 22:30	-3.8	-3.8	-3.8	84	-6.1	0	0	-100000	0.0	1005.5	0	0.000	0.0
20100106 22:35	-3.8	-3.8	-3.8	84	-6.1	0	0	-100000	0.0	1005.5	0	0.000	0.0
20100106 22:40	-3.8	-3.8	-3.8	85	-5.9	0	0	-100000	0.0	911.8	0	0.000	0.0
20100106 22:45	-3.8	-3.8	-3.8	85	-5.9	0	0	-100000	0.0	978.3	0	0.000	0.0
20100106 22:50	-3.8	-3.8	-3.8	85	-5.9	0	0	-100000	0.0	1005.6	0	0.000	0.0
20100106 22:55	-3.7	-3.7	-3.7	85	-5.9	0	0	-100000	0.0	1005.6	0	0.000	0.0
20100106 23:00	-3.7	-3.7	-3.7	85	-5.8	0	0	-100000	0.0	1005.6	0	0.000	0.0
20100106 23:05	-3.6	-3.6	-3.6	85	-5.8	0	0	-100000	0.0	1005.6	0	0.000	0.0
20100106 23:10	-3.6	-3.6	-3.6	85	-5.8	0	0	-100000	0.0	1005.6	0	0.000	0.0
20100106 23:15	-3.6	-3.6	-3.6	85	-5.8	0	0	-100000	0.0	1005.6	0	0.000	0.0
20100106 23:20	-3.6	-3.6	-3.6	85	-5.8	0	0	-100000	0.0	1005.8	0	0.000	0.0
20100106 23:25	-3.6	-3.6	-3.6	85	-5.7	0	2	292	0.0	1005.8	0	0.000	0.0
20100106 23:30	-3.5	-3.5	-3.5	85	-5.7	0	0	-100000	0.0	1005.8	0	0.000	0.0
20100106 23:35	-3.4	-3.4	-3.4	85	-5.6	0	3	292	0.0	1005.7	0	0.000	0.0
20100106 23:40	-3.5	-3.5	-3.5	85	-5.7	2	3	292	0.0	1005.7	0	0.000	0.0
20100106 23:45	-3.5	-3.5	-3.5	85	-5.7	0	3	292	0.0	1005.7	0	0.000	0.0
20100106 23:50	-3.4	-3.4	-3.4	85	-5.6	0	3	292	0.0	1005.8	0	0.000	0.0
20100106 23:55	-3.4	-3.4	-3.4	85	-5.6	0	2	292	0.0	1005.9	0	0.000	0.0



Please note the license to use and transfer of this data:
http://creativecommons.org/licenses/by-nc-sa/3.0/deed.en

Bitte beachten sie die Lizenz zur Verwertung und Weitergabe der Daten:
http://creativecommons.org/licenses/by-nc-sa/3.0/deed.de

zurück zur Übersicht der Archivdaten (Monats und Tagesdaten)

Cookies helfen bei der Bereitstellung von Inhalten. Durch die Nutzung dieser Seiten erklärst du dich damit einverstanden, dass Cookies auf deinem Rechner gespeichert werden. Weitere Information